sensor_id;sensor_type;location;lat;lon;timestamp;temperature;humidity
35647;DHT22;28680;45.642;13.756;2024-02-15T00:02:15;9.00;99.90
35647;DHT22;28680;45.642;13.756;2024-02-15T00:04:41;9.00;99.90
35647;DHT22;28680;45.642;13.756;2024-02-15T00:07:08;9.10;99.90
35647;DHT22;28680;45.642;13.756;2024-02-15T00:09:34;9.00;99.90
35647;DHT22;28680;45.642;13.756;2024-02-15T00:12:00;9.00;99.90
35647;DHT22;28680;45.642;13.756;2024-02-15T00:14:26;9.10;99.90
35647;DHT22;28680;45.642;13.756;2024-02-15T00:16:53;9.10;99.90
35647;DHT22;28680;45.642;13.756;2024-02-15T00:19:20;9.00;99.90
35647;DHT22;28680;45.642;13.756;2024-02-15T00:21:47;8.90;99.90
35647;DHT22;28680;45.642;13.756;2024-02-15T00:24:13;8.90;99.90
35647;DHT22;28680;45.642;13.756;2024-02-15T00:26:40;8.80;99.90
35647;DHT22;28680;45.642;13.756;2024-02-15T00:29:08;8.80;99.90
35647;DHT22;28680;45.642;13.756;2024-02-15T00:31:34;8.80;99.90
35647;DHT22;28680;45.642;13.756;2024-02-15T00:34:01;8.60;99.90
35647;DHT22;28680;45.642;13.756;2024-02-15T00:36:30;8.70;99.90
35647;DHT22;28680;45.642;13.756;2024-02-15T00:38:55;8.70;99.90
35647;DHT22;28680;45.642;13.756;2024-02-15T00:41:21;8.70;99.90
35647;DHT22;28680;45.642;13.756;2024-02-15T00:43:47;8.60;99.90
35647;DHT22;28680;45.642;13.756;2024-02-15T00:46:14;8.50;99.90
35647;DHT22;28680;45.642;13.756;2024-02-15T00:48:39;8.50;99.90
35647;DHT22;28680;45.642;13.756;2024-02-15T00:51:06;8.60;99.90
35647;DHT22;28680;45.642;13.756;2024-02-15T00:53:32;8.60;99.90
35647;DHT22;28680;45.642;13.756;2024-02-15T00:55:59;8.60;99.90
35647;DHT22;28680;45.642;13.756;2024-02-15T00:58:24;8.60;99.90
35647;DHT22;28680;45.642;13.756;2024-02-15T01:00:53;8.60;99.90
35647;DHT22;28680;45.642;13.756;2024-02-15T01:03:19;8.60;99.90
35647;DHT22;28680;45.642;13.756;2024-02-15T01:05:45;8.60;99.90
35647;DHT22;28680;45.642;13.756;2024-02-15T01:08:11;8.60;99.90
35647;DHT22;28680;45.642;13.756;2024-02-15T01:10:37;8.60;99.90
35647;DHT22;28680;45.642;13.756;2024-02-15T01:13:03;8.60;99.90
35647;DHT22;28680;45.642;13.756;2024-02-15T01:15:29;8.50;99.90
35647;DHT22;28680;45.642;13.756;2024-02-15T01:17:55;8.50;99.90
35647;DHT22;28680;45.642;13.756;2024-02-15T01:20:21;8.50;99.90
35647;DHT22;28680;45.642;13.756;2024-02-15T01:22:47;8.40;99.90
35647;DHT22;28680;45.642;13.756;2024-02-15T01:25:13;8.30;99.90
35647;DHT22;28680;45.642;13.756;2024-02-15T01:27:41;8.30;99.90
35647;DHT22;28680;45.642;13.756;2024-02-15T01:30:07;8.30;99.90
35647;DHT22;28680;45.642;13.756;2024-02-15T01:32:34;8.30;99.90
35647;DHT22;28680;45.642;13.756;2024-02-15T01:35:00;8.30;99.90
35647;DHT22;28680;45.642;13.756;2024-02-15T01:37:26;8.30;99.90
35647;DHT22;28680;45.642;13.756;2024-02-15T01:39:51;8.30;99.90
35647;DHT22;28680;45.642;13.756;2024-02-15T01:42:18;8.20;99.90
35647;DHT22;28680;45.642;13.756;2024-02-15T01:44:44;8.20;99.90
35647;DHT22;28680;45.642;13.756;2024-02-15T01:47:13;8.00;99.90
35647;DHT22;28680;45.642;13.756;2024-02-15T01:49:39;8.10;99.90
35647;DHT22;28680;45.642;13.756;2024-02-15T01:52:07;8.10;99.90
35647;DHT22;28680;45.642;13.756;2024-02-15T01:54:34;8.20;99.90
35647;DHT22;28680;45.642;13.756;2024-02-15T01:57:02;8.20;99.90
35647;DHT22;28680;45.642;13.756;2024-02-15T01:59:29;8.20;99.90
35647;DHT22;28680;45.642;13.756;2024-02-15T02:01:56;8.20;99.90
35647;DHT22;28680;45.642;13.756;2024-02-15T02:04:21;8.20;99.90
35647;DHT22;28680;45.642;13.756;2024-02-15T02:06:48;8.20;99.90
35647;DHT22;28680;45.642;13.756;2024-02-15T02:09:14;8.20;99.90
35647;DHT22;28680;45.642;13.756;2024-02-15T02:11:44;8.10;99.90
35647;DHT22;28680;45.642;13.756;2024-02-15T02:14:10;8.20;99.90
35647;DHT22;28680;45.642;13.756;2024-02-15T02:16:37;8.20;99.90
35647;DHT22;28680;45.642;13.756;2024-02-15T02:19:05;8.30;99.90
35647;DHT22;28680;45.642;13.756;2024-02-15T02:21:35;8.40;99.90
35647;DHT22;28680;45.642;13.756;2024-02-15T02:24:17;8.40;99.90
35647;DHT22;28680;45.642;13.756;2024-02-15T02:26:46;8.30;99.90
35647;DHT22;28680;45.642;13.756;2024-02-15T02:29:12;8.30;99.90
35647;DHT22;28680;45.642;13.756;2024-02-15T02:31:38;8.30;99.90
35647;DHT22;28680;45.642;13.756;2024-02-15T02:34:04;8.40;99.90
35647;DHT22;28680;45.642;13.756;2024-02-15T02:36:32;8.40;99.90
35647;DHT22;28680;45.642;13.756;2024-02-15T02:38:58;8.50;99.90
35647;DHT22;28680;45.642;13.756;2024-02-15T02:41:27;8.50;99.90
35647;DHT22;28680;45.642;13.756;2024-02-15T02:43:58;8.50;99.90
35647;DHT22;28680;45.642;13.756;2024-02-15T02:46:24;8.50;99.90
35647;DHT22;28680;45.642;13.756;2024-02-15T02:48:49;8.50;99.90
35647;DHT22;28680;45.642;13.756;2024-02-15T02:51:16;8.50;99.90
35647;DHT22;28680;45.642;13.756;2024-02-15T02:53:42;8.40;99.90
35647;DHT22;28680;45.642;13.756;2024-02-15T02:56:08;8.40;99.90
35647;DHT22;28680;45.642;13.756;2024-02-15T02:58:34;8.40;99.90
35647;DHT22;28680;45.642;13.756;2024-02-15T03:01:01;8.30;99.90
35647;DHT22;28680;45.642;13.756;2024-02-15T03:03:27;8.30;99.90
35647;DHT22;28680;45.642;13.756;2024-02-15T03:05:53;8.30;99.90
35647;DHT22;28680;45.642;13.756;2024-02-15T03:08:19;8.20;99.90
35647;DHT22;28680;45.642;13.756;2024-02-15T03:10:46;8.20;99.90
35647;DHT22;28680;45.642;13.756;2024-02-15T03:13:12;8.20;99.90
35647;DHT22;28680;45.642;13.756;2024-02-15T03:15:38;8.20;99.90
35647;DHT22;28680;45.642;13.756;2024-02-15T03:18:04;8.20;99.90
35647;DHT22;28680;45.642;13.756;2024-02-15T03:20:33;8.30;99.90
35647;DHT22;28680;45.642;13.756;2024-02-15T03:23:02;8.20;99.90
35647;DHT22;28680;45.642;13.756;2024-02-15T03:25:29;8.10;99.90
35647;DHT22;28680;45.642;13.756;2024-02-15T03:27:56;8.10;99.90
35647;DHT22;28680;45.642;13.756;2024-02-15T03:30:23;8.10;99.90
35647;DHT22;28680;45.642;13.756;2024-02-15T03:32:53;8.20;99.90
35647;DHT22;28680;45.642;13.756;2024-02-15T03:35:20;8.20;99.90
35647;DHT22;28680;45.642;13.756;2024-02-15T03:37:48;8.20;99.90
35647;DHT22;28680;45.642;13.756;2024-02-15T03:40:17;8.20;99.90
35647;DHT22;28680;45.642;13.756;2024-02-15T03:42:43;8.20;99.90
35647;DHT22;28680;45.642;13.756;2024-02-15T03:45:09;8.20;99.90
35647;DHT22;28680;45.642;13.756;2024-02-15T03:47:36;8.20;99.90
35647;DHT22;28680;45.642;13.756;2024-02-15T03:50:03;8.20;99.90
35647;DHT22;28680;45.642;13.756;2024-02-15T03:52:30;8.10;99.90
35647;DHT22;28680;45.642;13.756;2024-02-15T03:54:57;8.10;99.90
35647;DHT22;28680;45.642;13.756;2024-02-15T03:57:23;8.20;99.90
35647;DHT22;28680;45.642;13.756;2024-02-15T03:59:50;8.40;99.90
35647;DHT22;28680;45.642;13.756;2024-02-15T04:02:20;8.20;99.90
35647;DHT22;28680;45.642;13.756;2024-02-15T04:04:46;8.20;99.90
35647;DHT22;28680;45.642;13.756;2024-02-15T04:07:18;8.10;99.90
35647;DHT22;28680;45.642;13.756;2024-02-15T04:09:47;8.10;99.90
35647;DHT22;28680;45.642;13.756;2024-02-15T04:12:13;8.10;99.90
35647;DHT22;28680;45.642;13.756;2024-02-15T04:14:43;8.10;99.90
35647;DHT22;28680;45.642;13.756;2024-02-15T04:17:13;8.10;99.90
35647;DHT22;28680;45.642;13.756;2024-02-15T04:19:46;8.10;99.90
35647;DHT22;28680;45.642;13.756;2024-02-15T04:22:12;8.20;99.90
35647;DHT22;28680;45.642;13.756;2024-02-15T04:24:38;8.20;99.90
35647;DHT22;28680;45.642;13.756;2024-02-15T04:27:06;8.10;99.90
35647;DHT22;28680;45.642;13.756;2024-02-15T04:29:36;8.10;99.90
35647;DHT22;28680;45.642;13.756;2024-02-15T04:32:12;8.10;99.90
35647;DHT22;28680;45.642;13.756;2024-02-15T04:34:39;8.10;99.90
35647;DHT22;28680;45.642;13.756;2024-02-15T04:37:05;8.10;99.90
35647;DHT22;28680;45.642;13.756;2024-02-15T04:39:37;8.00;99.90
35647;DHT22;28680;45.642;13.756;2024-02-15T04:42:04;7.90;99.90
35647;DHT22;28680;45.642;13.756;2024-02-15T04:44:32;7.90;99.90
35647;DHT22;28680;45.642;13.756;2024-02-15T04:47:01;7.80;99.90
35647;DHT22;28680;45.642;13.756;2024-02-15T04:49:28;7.80;99.90
35647;DHT22;28680;45.642;13.756;2024-02-15T04:51:55;7.90;99.90
35647;DHT22;28680;45.642;13.756;2024-02-15T04:54:20;7.90;99.90
35647;DHT22;28680;45.642;13.756;2024-02-15T04:56:47;7.80;99.90
35647;DHT22;28680;45.642;13.756;2024-02-15T04:59:13;7.80;99.90
35647;DHT22;28680;45.642;13.756;2024-02-15T05:01:43;7.70;99.90
35647;DHT22;28680;45.642;13.756;2024-02-15T05:04:10;7.70;99.90
35647;DHT22;28680;45.642;13.756;2024-02-15T05:06:37;7.60;99.90
35647;DHT22;28680;45.642;13.756;2024-02-15T05:09:03;7.60;99.90
35647;DHT22;28680;45.642;13.756;2024-02-15T05:11:37;7.60;99.90
35647;DHT22;28680;45.642;13.756;2024-02-15T05:14:04;7.60;99.90
35647;DHT22;28680;45.642;13.756;2024-02-15T05:16:32;7.60;99.90
35647;DHT22;28680;45.642;13.756;2024-02-15T05:18:58;7.50;99.90
35647;DHT22;28680;45.642;13.756;2024-02-15T05:21:24;7.50;99.90
35647;DHT22;28680;45.642;13.756;2024-02-15T05:23:50;7.50;99.90
35647;DHT22;28680;45.642;13.756;2024-02-15T05:26:18;7.50;99.90
35647;DHT22;28680;45.642;13.756;2024-02-15T05:28:52;7.50;99.90
35647;DHT22;28680;45.642;13.756;2024-02-15T05:31:19;7.50;99.90
35647;DHT22;28680;45.642;13.756;2024-02-15T05:33:49;7.50;99.90
35647;DHT22;28680;45.642;13.756;2024-02-15T05:36:17;7.40;99.90
35647;DHT22;28680;45.642;13.756;2024-02-15T05:38:53;7.40;99.90
35647;DHT22;28680;45.642;13.756;2024-02-15T05:41:20;7.40;99.90
35647;DHT22;28680;45.642;13.756;2024-02-15T05:43:47;7.40;99.90
35647;DHT22;28680;45.642;13.756;2024-02-15T05:46:18;7.40;99.90
35647;DHT22;28680;45.642;13.756;2024-02-15T05:48:47;7.30;99.90
35647;DHT22;28680;45.642;13.756;2024-02-15T05:51:13;7.40;99.90
35647;DHT22;28680;45.642;13.756;2024-02-15T05:53:38;7.50;99.90
35647;DHT22;28680;45.642;13.756;2024-02-15T05:56:05;7.40;99.90
35647;DHT22;28680;45.642;13.756;2024-02-15T05:58:42;7.40;99.90
35647;DHT22;28680;45.642;13.756;2024-02-15T06:01:07;7.30;99.90
35647;DHT22;28680;45.642;13.756;2024-02-15T06:03:37;7.30;99.90
35647;DHT22;28680;45.642;13.756;2024-02-15T06:06:04;7.40;99.90
35647;DHT22;28680;45.642;13.756;2024-02-15T06:08:34;7.40;99.90
35647;DHT22;28680;45.642;13.756;2024-02-15T06:11:00;7.40;99.90
35647;DHT22;28680;45.642;13.756;2024-02-15T06:13:27;7.40;99.90
35647;DHT22;28680;45.642;13.756;2024-02-15T06:15:53;7.40;99.90
35647;DHT22;28680;45.642;13.756;2024-02-15T06:18:27;7.40;99.90
35647;DHT22;28680;45.642;13.756;2024-02-15T06:20:59;7.40;99.90
35647;DHT22;28680;45.642;13.756;2024-02-15T06:23:28;7.40;99.90
35647;DHT22;28680;45.642;13.756;2024-02-15T06:25:56;7.40;99.90
35647;DHT22;28680;45.642;13.756;2024-02-15T06:28:23;7.40;99.90
35647;DHT22;28680;45.642;13.756;2024-02-15T06:31:08;7.30;99.90
35647;DHT22;28680;45.642;13.756;2024-02-15T06:33:53;7.40;99.90
35647;DHT22;28680;45.642;13.756;2024-02-15T06:36:56;7.30;99.90
35647;DHT22;28680;45.642;13.756;2024-02-15T06:39:41;7.40;99.90
35647;DHT22;28680;45.642;13.756;2024-02-15T06:42:07;7.40;99.90
35647;DHT22;28680;45.642;13.756;2024-02-15T06:44:33;7.40;99.90
35647;DHT22;28680;45.642;13.756;2024-02-15T06:47:00;7.50;99.90
35647;DHT22;28680;45.642;13.756;2024-02-15T06:49:26;7.50;99.90
35647;DHT22;28680;45.642;13.756;2024-02-15T06:51:52;7.50;99.90
35647;DHT22;28680;45.642;13.756;2024-02-15T06:54:18;7.60;99.90
35647;DHT22;28680;45.642;13.756;2024-02-15T06:56:44;7.70;99.90
35647;DHT22;28680;45.642;13.756;2024-02-15T06:59:14;7.80;99.90
35647;DHT22;28680;45.642;13.756;2024-02-15T07:01:42;7.70;99.90
35647;DHT22;28680;45.642;13.756;2024-02-15T07:04:09;7.70;99.90
35647;DHT22;28680;45.642;13.756;2024-02-15T07:06:38;7.90;99.90
35647;DHT22;28680;45.642;13.756;2024-02-15T07:09:05;8.00;99.90
35647;DHT22;28680;45.642;13.756;2024-02-15T07:11:34;8.10;99.90
35647;DHT22;28680;45.642;13.756;2024-02-15T07:14:01;8.30;99.90
35647;DHT22;28680;45.642;13.756;2024-02-15T07:16:27;8.30;99.90
35647;DHT22;28680;45.642;13.756;2024-02-15T07:18:53;8.30;99.90
35647;DHT22;28680;45.642;13.756;2024-02-15T07:21:22;8.40;99.90
35647;DHT22;28680;45.642;13.756;2024-02-15T07:23:53;8.40;99.90
35647;DHT22;28680;45.642;13.756;2024-02-15T07:26:20;8.80;99.90
35647;DHT22;28680;45.642;13.756;2024-02-15T07:28:59;9.00;99.90
35647;DHT22;28680;45.642;13.756;2024-02-15T07:31:28;9.40;99.90
35647;DHT22;28680;45.642;13.756;2024-02-15T07:33:55;9.80;99.90
35647;DHT22;28680;45.642;13.756;2024-02-15T07:36:21;10.20;99.90
35647;DHT22;28680;45.642;13.756;2024-02-15T07:38:50;10.60;99.90
35647;DHT22;28680;45.642;13.756;2024-02-15T07:41:20;10.80;99.90
35647;DHT22;28680;45.642;13.756;2024-02-15T07:43:51;11.00;99.90
35647;DHT22;28680;45.642;13.756;2024-02-15T07:46:21;11.10;99.90
35647;DHT22;28680;45.642;13.756;2024-02-15T07:48:47;11.30;99.90
35647;DHT22;28680;45.642;13.756;2024-02-15T07:51:14;11.60;99.90
35647;DHT22;28680;45.642;13.756;2024-02-15T07:53:41;11.70;99.90
35647;DHT22;28680;45.642;13.756;2024-02-15T07:56:08;11.90;99.90
35647;DHT22;28680;45.642;13.756;2024-02-15T07:58:39;12.00;99.90
35647;DHT22;28680;45.642;13.756;2024-02-15T08:01:07;12.00;99.90
35647;DHT22;28680;45.642;13.756;2024-02-15T08:03:35;12.00;99.90
35647;DHT22;28680;45.642;13.756;2024-02-15T08:06:02;11.90;99.90
35647;DHT22;28680;45.642;13.756;2024-02-15T08:08:33;11.90;99.90
35647;DHT22;28680;45.642;13.756;2024-02-15T08:11:03;11.70;99.90
35647;DHT22;28680;45.642;13.756;2024-02-15T08:13:29;11.40;99.90
35647;DHT22;28680;45.642;13.756;2024-02-15T08:15:55;11.50;99.90
35647;DHT22;28680;45.642;13.756;2024-02-15T08:18:21;11.90;99.90
35647;DHT22;28680;45.642;13.756;2024-02-15T08:20:47;12.20;99.90
35647;DHT22;28680;45.642;13.756;2024-02-15T08:23:13;12.50;99.90
35647;DHT22;28680;45.642;13.756;2024-02-15T08:25:39;12.70;99.90
35647;DHT22;28680;45.642;13.756;2024-02-15T08:28:06;12.90;99.90
35647;DHT22;28680;45.642;13.756;2024-02-15T08:30:33;13.30;99.90
35647;DHT22;28680;45.642;13.756;2024-02-15T08:32:59;13.70;99.90
35647;DHT22;28680;45.642;13.756;2024-02-15T08:35:25;13.80;99.90
35647;DHT22;28680;45.642;13.756;2024-02-15T08:37:50;14.10;99.90
35647;DHT22;28680;45.642;13.756;2024-02-15T08:40:18;14.40;99.90
35647;DHT22;28680;45.642;13.756;2024-02-15T08:42:50;14.70;99.90
35647;DHT22;28680;45.642;13.756;2024-02-15T08:45:16;14.70;99.90
35647;DHT22;28680;45.642;13.756;2024-02-15T08:47:43;14.90;99.90
35647;DHT22;28680;45.642;13.756;2024-02-15T08:50:09;14.90;99.90
35647;DHT22;28680;45.642;13.756;2024-02-15T08:52:36;14.80;99.90
35647;DHT22;28680;45.642;13.756;2024-02-15T08:55:09;14.60;99.90
35647;DHT22;28680;45.642;13.756;2024-02-15T08:57:36;14.20;99.90
35647;DHT22;28680;45.642;13.756;2024-02-15T09:00:04;14.20;99.90
35647;DHT22;28680;45.642;13.756;2024-02-15T09:02:35;14.40;99.90
35647;DHT22;28680;45.642;13.756;2024-02-15T09:05:00;14.90;99.90
35647;DHT22;28680;45.642;13.756;2024-02-15T09:07:26;15.20;99.90
35647;DHT22;28680;45.642;13.756;2024-02-15T09:09:52;15.50;99.90
35647;DHT22;28680;45.642;13.756;2024-02-15T09:12:18;15.70;99.90
35647;DHT22;28680;45.642;13.756;2024-02-15T09:14:44;15.70;99.90
35647;DHT22;28680;45.642;13.756;2024-02-15T09:17:10;16.00;99.90
35647;DHT22;28680;45.642;13.756;2024-02-15T09:19:36;15.80;99.90
35647;DHT22;28680;45.642;13.756;2024-02-15T09:22:02;15.70;99.90
35647;DHT22;28680;45.642;13.756;2024-02-15T09:24:31;15.90;99.90
35647;DHT22;28680;45.642;13.756;2024-02-15T09:27:00;16.30;99.90
35647;DHT22;28680;45.642;13.756;2024-02-15T09:29:30;16.60;99.90
35647;DHT22;28680;45.642;13.756;2024-02-15T09:31:58;16.80;99.90
35647;DHT22;28680;45.642;13.756;2024-02-15T09:34:24;17.00;99.90
35647;DHT22;28680;45.642;13.756;2024-02-15T09:36:50;17.00;99.90
35647;DHT22;28680;45.642;13.756;2024-02-15T09:39:18;17.00;99.90
35647;DHT22;28680;45.642;13.756;2024-02-15T09:41:43;17.20;99.90
35647;DHT22;28680;45.642;13.756;2024-02-15T09:44:10;17.40;99.90
35647;DHT22;28680;45.642;13.756;2024-02-15T09:46:38;17.30;99.90
35647;DHT22;28680;45.642;13.756;2024-02-15T09:49:07;17.30;99.90
35647;DHT22;28680;45.642;13.756;2024-02-15T09:51:34;17.30;99.90
35647;DHT22;28680;45.642;13.756;2024-02-15T09:54:01;16.90;99.90
35647;DHT22;28680;45.642;13.756;2024-02-15T09:56:28;17.00;99.90
35647;DHT22;28680;45.642;13.756;2024-02-15T09:58:56;16.90;99.90
35647;DHT22;28680;45.642;13.756;2024-02-15T10:01:23;17.20;99.90
35647;DHT22;28680;45.642;13.756;2024-02-15T10:03:50;16.90;99.90
35647;DHT22;28680;45.642;13.756;2024-02-15T10:06:17;17.10;99.90
35647;DHT22;28680;45.642;13.756;2024-02-15T10:08:44;17.00;99.90
35647;DHT22;28680;45.642;13.756;2024-02-15T10:11:10;16.80;99.90
35647;DHT22;28680;45.642;13.756;2024-02-15T10:13:36;16.80;99.90
35647;DHT22;28680;45.642;13.756;2024-02-15T10:16:20;16.90;99.90
35647;DHT22;28680;45.642;13.756;2024-02-15T10:18:50;17.00;99.90
35647;DHT22;28680;45.642;13.756;2024-02-15T10:21:26;17.20;99.90
35647;DHT22;28680;45.642;13.756;2024-02-15T10:24:05;17.60;99.90
35647;DHT22;28680;45.642;13.756;2024-02-15T10:26:32;18.10;99.90
35647;DHT22;28680;45.642;13.756;2024-02-15T10:29:11;18.70;99.90
35647;DHT22;28680;45.642;13.756;2024-02-15T10:31:40;19.10;99.90
35647;DHT22;28680;45.642;13.756;2024-02-15T10:34:17;19.30;99.90
35647;DHT22;28680;45.642;13.756;2024-02-15T10:36:45;19.50;99.90
35647;DHT22;28680;45.642;13.756;2024-02-15T10:39:12;20.20;99.90
35647;DHT22;28680;45.642;13.756;2024-02-15T10:41:47;20.50;99.90
35647;DHT22;28680;45.642;13.756;2024-02-15T10:44:17;20.90;99.90
35647;DHT22;28680;45.642;13.756;2024-02-15T10:46:48;20.90;99.90
35647;DHT22;28680;45.642;13.756;2024-02-15T10:49:25;21.00;99.90
35647;DHT22;28680;45.642;13.756;2024-02-15T10:52:01;21.20;99.90
35647;DHT22;28680;45.642;13.756;2024-02-15T10:54:46;21.00;99.90
35647;DHT22;28680;45.642;13.756;2024-02-15T10:57:14;21.20;99.90
35647;DHT22;28680;45.642;13.756;2024-02-15T11:00:02;21.60;99.90
35647;DHT22;28680;45.642;13.756;2024-02-15T11:02:47;22.20;99.90
35647;DHT22;28680;45.642;13.756;2024-02-15T11:05:16;21.90;99.90
35647;DHT22;28680;45.642;13.756;2024-02-15T11:07:46;21.90;99.90
35647;DHT22;28680;45.642;13.756;2024-02-15T11:10:12;21.90;99.90
35647;DHT22;28680;45.642;13.756;2024-02-15T11:12:43;21.90;99.90
35647;DHT22;28680;45.642;13.756;2024-02-15T11:15:12;21.80;99.90
35647;DHT22;28680;45.642;13.756;2024-02-15T11:20:09;20.70;99.90
35647;DHT22;28680;45.642;13.756;2024-02-15T11:22:37;21.30;99.90
35647;DHT22;28680;45.642;13.756;2024-02-15T11:25:05;21.30;99.90
35647;DHT22;28680;45.642;13.756;2024-02-15T11:27:35;21.00;99.90
35647;DHT22;28680;45.642;13.756;2024-02-15T11:30:07;20.80;99.90
35647;DHT22;28680;45.642;13.756;2024-02-15T11:32:45;20.70;99.90
35647;DHT22;28680;45.642;13.756;2024-02-15T11:35:29;20.10;99.90
35647;DHT22;28680;45.642;13.756;2024-02-15T11:37:57;20.20;99.90
35647;DHT22;28680;45.642;13.756;2024-02-15T11:43:08;20.00;99.90
35647;DHT22;28680;45.642;13.756;2024-02-15T11:45:36;20.20;99.90
35647;DHT22;28680;45.642;13.756;2024-02-15T11:48:11;20.60;99.90
35647;DHT22;28680;45.642;13.756;2024-02-15T11:50:38;20.60;99.90
35647;DHT22;28680;45.642;13.756;2024-02-15T11:53:06;21.00;99.90
35647;DHT22;28680;45.642;13.756;2024-02-15T11:55:37;21.10;99.90
35647;DHT22;28680;45.642;13.756;2024-02-15T11:58:08;21.10;99.90
35647;DHT22;28680;45.642;13.756;2024-02-15T12:00:34;21.10;99.90
35647;DHT22;28680;45.642;13.756;2024-02-15T12:03:19;21.00;99.90
35647;DHT22;28680;45.642;13.756;2024-02-15T12:06:04;21.10;99.90
35647;DHT22;28680;45.642;13.756;2024-02-15T12:08:50;20.90;99.90
35647;DHT22;28680;45.642;13.756;2024-02-15T12:11:34;20.70;99.90
35647;DHT22;28680;45.642;13.756;2024-02-15T12:14:19;20.70;99.90
35647;DHT22;28680;45.642;13.756;2024-02-15T12:17:07;20.70;99.90
35647;DHT22;28680;45.642;13.756;2024-02-15T12:19:54;20.30;99.90
35647;DHT22;28680;45.642;13.756;2024-02-15T12:22:34;20.40;99.90
35647;DHT22;28680;45.642;13.756;2024-02-15T12:25:02;20.80;99.90
35647;DHT22;28680;45.642;13.756;2024-02-15T12:27:56;21.10;99.90
35647;DHT22;28680;45.642;13.756;2024-02-15T12:30:22;21.30;99.90
35647;DHT22;28680;45.642;13.756;2024-02-15T12:32:51;21.30;99.90
35647;DHT22;28680;45.642;13.756;2024-02-15T12:35:19;21.20;99.90
35647;DHT22;28680;45.642;13.756;2024-02-15T12:37:46;21.20;99.90
35647;DHT22;28680;45.642;13.756;2024-02-15T12:40:20;20.80;99.90
35647;DHT22;28680;45.642;13.756;2024-02-15T12:42:48;20.80;99.90
35647;DHT22;28680;45.642;13.756;2024-02-15T12:45:20;20.80;99.90
35647;DHT22;28680;45.642;13.756;2024-02-15T12:48:11;20.80;99.90
35647;DHT22;28680;45.642;13.756;2024-02-15T12:50:37;20.90;99.90
35647;DHT22;28680;45.642;13.756;2024-02-15T12:53:03;21.00;99.90
35647;DHT22;28680;45.642;13.756;2024-02-15T12:55:30;20.80;99.90
35647;DHT22;28680;45.642;13.756;2024-02-15T12:58:03;20.90;99.90
35647;DHT22;28680;45.642;13.756;2024-02-15T13:00:32;20.50;99.90
35647;DHT22;28680;45.642;13.756;2024-02-15T13:02:59;20.30;99.90
35647;DHT22;28680;45.642;13.756;2024-02-15T13:05:29;20.60;99.90
35647;DHT22;28680;45.642;13.756;2024-02-15T13:08:01;21.30;99.90
35647;DHT22;28680;45.642;13.756;2024-02-15T13:10:31;21.60;99.90
35647;DHT22;28680;45.642;13.756;2024-02-15T13:13:02;22.00;99.90
35647;DHT22;28680;45.642;13.756;2024-02-15T13:15:31;22.00;99.90
35647;DHT22;28680;45.642;13.756;2024-02-15T13:18:24;22.50;99.90
35647;DHT22;28680;45.642;13.756;2024-02-15T13:20:54;23.00;99.90
35647;DHT22;28680;45.642;13.756;2024-02-15T13:23:19;23.10;99.90
35647;DHT22;28680;45.642;13.756;2024-02-15T13:25:52;23.10;99.90
35647;DHT22;28680;45.642;13.756;2024-02-15T13:28:20;23.30;99.90
35647;DHT22;28680;45.642;13.756;2024-02-15T13:30:47;23.70;99.90
35647;DHT22;28680;45.642;13.756;2024-02-15T13:33:14;23.00;99.90
35647;DHT22;28680;45.642;13.756;2024-02-15T13:35:41;23.50;99.90
35647;DHT22;28680;45.642;13.756;2024-02-15T13:38:07;24.30;99.90
35647;DHT22;28680;45.642;13.756;2024-02-15T13:40:40;24.80;99.90
35647;DHT22;28680;45.642;13.756;2024-02-15T13:43:07;24.50;99.90
35647;DHT22;28680;45.642;13.756;2024-02-15T13:45:40;24.40;99.90
35647;DHT22;28680;45.642;13.756;2024-02-15T13:48:06;24.30;99.90
35647;DHT22;28680;45.642;13.756;2024-02-15T13:50:33;24.30;99.90
35647;DHT22;28680;45.642;13.756;2024-02-15T13:52:59;24.30;99.90
35647;DHT22;28680;45.642;13.756;2024-02-15T13:55:26;24.20;99.90
35647;DHT22;28680;45.642;13.756;2024-02-15T13:57:53;24.60;99.90
35647;DHT22;28680;45.642;13.756;2024-02-15T14:00:19;24.50;99.90
35647;DHT22;28680;45.642;13.756;2024-02-15T14:02:56;24.30;99.90
35647;DHT22;28680;45.642;13.756;2024-02-15T14:05:23;25.00;99.90
35647;DHT22;28680;45.642;13.756;2024-02-15T14:07:52;25.10;99.90
35647;DHT22;28680;45.642;13.756;2024-02-15T14:10:25;25.10;99.90
35647;DHT22;28680;45.642;13.756;2024-02-15T14:12:55;24.20;99.90
35647;DHT22;28680;45.642;13.756;2024-02-15T14:15:24;23.30;99.90
35647;DHT22;28680;45.642;13.756;2024-02-15T14:17:50;22.60;99.90
35647;DHT22;28680;45.642;13.756;2024-02-15T14:20:16;22.60;99.90
35647;DHT22;28680;45.642;13.756;2024-02-15T14:22:44;22.80;99.90
35647;DHT22;28680;45.642;13.756;2024-02-15T14:25:10;23.20;99.90
35647;DHT22;28680;45.642;13.756;2024-02-15T14:27:39;23.30;99.90
35647;DHT22;28680;45.642;13.756;2024-02-15T14:30:06;23.10;99.90
35647;DHT22;28680;45.642;13.756;2024-02-15T14:32:51;22.50;99.90
35647;DHT22;28680;45.642;13.756;2024-02-15T14:35:27;23.00;99.90
35647;DHT22;28680;45.642;13.756;2024-02-15T14:37:54;23.20;99.90
35647;DHT22;28680;45.642;13.756;2024-02-15T14:40:23;23.10;99.90
35647;DHT22;28680;45.642;13.756;2024-02-15T14:42:49;23.20;99.90
35647;DHT22;28680;45.642;13.756;2024-02-15T14:45:15;23.20;99.90
35647;DHT22;28680;45.642;13.756;2024-02-15T14:47:43;23.10;99.90
35647;DHT22;28680;45.642;13.756;2024-02-15T14:50:15;23.00;99.90
35647;DHT22;28680;45.642;13.756;2024-02-15T14:52:41;22.90;99.90
35647;DHT22;28680;45.642;13.756;2024-02-15T14:55:11;22.80;99.90
35647;DHT22;28680;45.642;13.756;2024-02-15T14:57:37;22.70;99.90
35647;DHT22;28680;45.642;13.756;2024-02-15T15:00:06;22.60;99.90
35647;DHT22;28680;45.642;13.756;2024-02-15T15:02:47;22.50;99.90
35647;DHT22;28680;45.642;13.756;2024-02-15T15:05:14;22.40;99.90
35647;DHT22;28680;45.642;13.756;2024-02-15T15:07:59;22.30;99.90
35647;DHT22;28680;45.642;13.756;2024-02-15T15:10:45;22.20;99.90
35647;DHT22;28680;45.642;13.756;2024-02-15T15:13:32;22.10;99.90
35647;DHT22;28680;45.642;13.756;2024-02-15T15:16:16;22.00;99.90
35647;DHT22;28680;45.642;13.756;2024-02-15T15:18:47;22.00;99.90
35647;DHT22;28680;45.642;13.756;2024-02-15T15:21:15;21.90;99.90
35647;DHT22;28680;45.642;13.756;2024-02-15T15:23:53;21.30;99.90
35647;DHT22;28680;45.642;13.756;2024-02-15T15:26:20;20.80;99.90
35647;DHT22;28680;45.642;13.756;2024-02-15T15:28:46;20.70;99.90
35647;DHT22;28680;45.642;13.756;2024-02-15T15:31:13;20.90;99.90
35647;DHT22;28680;45.642;13.756;2024-02-15T15:33:41;20.90;99.90
35647;DHT22;28680;45.642;13.756;2024-02-15T15:36:07;20.90;99.90
35647;DHT22;28680;45.642;13.756;2024-02-15T15:38:34;19.90;99.90
35647;DHT22;28680;45.642;13.756;2024-02-15T15:41:00;19.30;99.90